Flight Track Log - Related Links

Times and Time Zones

All times are in EDT time to prevent confusion due to time zone crossing. See the DAL1981 flight status page for this flight to view local times or setup timezone preferences in your user account.

Time Position Orientation Groundspeed Altitude Reporting Facility
EDT Latitude Longitude Course Direction KTS MPH feet Rate Location/Type
Sat 06:10:03 AM 42.7297 -73.8081 180° South 145 167 1,500  Level Boston Center
Sat 06:10:46 AM 42.7006 -73.8244 202° Southwest 185 213 2,900 2,500 Climbing Boston Center
Sat 06:11:15 AM 42.7022 -73.8583 274° West 238 274 4,500 2,831 Climbing Boston Center
Sat 06:12:15 AM 42.7492 -73.9244 314° West 245 282 7,100 2,800 Climbing Boston Center
Sat 06:13:00 AM 42.4490 -74.2208 198° South  Level Estimated
Sat 06:13:15 AM 42.7878 -74.0075 302° West 256 295 10,100  Level Boston Center
Sat 06:14:00 AM 42.3738 -74.3249 200° South  Level Estimated
Sat 06:14:27 AM 42.7969 -74.0983 278° West 256 295 11,800  Level Boston Center
Sat 06:15:00 AM 42.2984 -74.4288 180° South  Level Estimated
Sat 06:15:27 AM 42.7219 -74.2233 231° Southwest 272 313 14,200  Level Boston Center
Sat 06:16:27 AM 42.6311 -74.2997 212° Southwest 341 392 17,600 3,100 Climbing Boston Center
Sat 06:17:27 AM 42.5331 -74.2997 180° South 336 387 20,400 2,350 Climbing Boston Center
Sat 06:18:27 AM 42.4344 -74.2122 147° Southeast 350 403 22,300 1,700 Climbing Boston Center
Sat 06:19:27 AM 42.3317 -74.1225 147° Southeast 391 450 23,800 1,450 Climbing Boston Center
Sat 06:20:27 AM 42.2203 -74.0436 152° Southeast 425 489 25,200 1,727 Climbing Boston Center
Sat 06:21:39 AM 42.1264 -74.0414 179° South 416 479 27,600 2,000 Climbing Boston Center
Sat 06:22:39 AM 41.9736 -74.0933 194° South 401 461 29,600 1,700 Climbing Boston Center
Sat 06:23:39 AM 41.8686 -74.1461 201° Southwest 401 461 31,000 1,500 Climbing Boston Center
Sat 06:24:39 AM 41.7719 -74.1939 200° South 401 461 32,600 1,121 Climbing Boston Center
Sat 06:26:41 AM 41.5650 -74.2950 200° South 391 450 34,400 791 Climbing New Center
Sat 06:27:41 AM 41.4678 -74.3425 200° South 362 417 35,000 450 Climbing New Center
Sat 06:28:41 AM 41.3664 -74.3922 200° South 362 417 35,300 300 Climbing New Center
Sat 06:29:41 AM 41.2753 -74.4400 202° Southwest 362 417 35,600 353 Climbing New Center
Sat 06:30:40 AM 41.1719 -74.4839 198° South 362 417 36,000 150 Climbing New Center
Sat 06:31:41 AM 41.0703 -74.5417 203° Southwest 362 417 35,900  Descending New Center
Sat 06:32:40 AM 40.9839 -74.6331 219° Southwest 393 452 36,000 50 Climbing New Center
Sat 06:33:41 AM 40.9056 -74.7356 225° Southwest 398 458 36,000  Level New Center
Sat 06:34:42 AM 40.8250 -74.8325 222° Southwest 398 458 36,000  Level New Center
Sat 06:35:40 AM 40.7358 -74.9394 222° Southwest 398 458 36,000  Level New Center
Sat 06:36:42 AM 40.6553 -75.0383 223° Southwest 398 458 36,000  Level New Center
Sat 06:37:41 AM 40.5767 -75.1347 223° Southwest 398 458 36,000  Level New Center
Sat 06:38:42 AM 40.5003 -75.2308 224° Southwest 398 458 36,000  Level New Center
Sat 06:39:40 AM 40.4194 -75.3264 222° Southwest 393 452 36,000  Level New Center
Sat 06:40:41 AM 40.3408 -75.4192 222° Southwest 393 452 36,000  Level New Center
Sat 06:41:42 AM 40.2642 -75.5147 224° Southwest 388 447 36,000  Level New Center
Sat 06:42:43 AM 40.1950 -75.6214 230° Southwest 388 447 36,000  Level New Center
Sat 06:43:41 AM 40.1383 -75.7342 237° Southwest 383 441 36,000  Level New Center
Sat 06:44:42 AM 40.0814 -75.8494 237° Southwest 383 441 36,000  Level New Center
Sat 06:45:40 AM 40.0244 -75.9592 236° Southwest 383 441 36,000  Level New Center
Sat 06:46:41 AM 39.9672 -76.0714 236° Southwest 377 434 36,000  Level New Center
Sat 06:48:12 AM 39.8892 -76.2242 236° Southwest 374 430 36,000  Level Washington Center
Sat 06:49:12 AM 39.8300 -76.3372 236° Southwest 367 422 36,000  Level Washington Center
Sat 06:50:10 AM 39.7772 -76.4419 237° Southwest 367 422 36,000  Level Washington Center
Sat 06:51:12 AM 39.7161 -76.5600 236° Southwest 367 422 36,000  Level Washington Center
Sat 06:52:10 AM 39.6608 -76.6697 237° Southwest 367 422 36,000  Level Washington Center
Sat 06:53:11 AM 39.6036 -76.7767 235° Southwest 373 429 36,000  Level Washington Center
Sat 06:54:11 AM 39.5442 -76.8858 235° Southwest 373 429 36,000  Level Washington Center
Sat 06:55:10 AM 39.4847 -76.9925 234° Southwest 373 429 36,000  Level Washington Center
Sat 06:56:10 AM 39.4025 -77.0742 218° Southwest 373 429 36,000  Level Washington Center
Sat 06:57:11 AM 39.3283 -77.1639 223° Southwest 367 422 36,000  Level Washington Center
Sat 06:58:11 AM 39.2583 -77.2614 227° Southwest 367 422 36,000  Level Washington Center
Sat 06:59:09 AM 39.1922 -77.3564 228° Southwest 367 422 36,000  Level Washington Center
Sat 07:00:10 AM 39.1219 -77.4536 227° Southwest 367 422 36,000  Level Washington Center
Sat 07:01:09 AM 39.0558 -77.5456 227° Southwest 367 422 36,000  Level Washington Center
Sat 07:02:11 AM 38.9919 -77.6319 226° Southwest 367 422 36,000  Level Washington Center
Sat 07:03:11 AM 38.9194 -77.7342 228° Southwest 362 417 36,000  Level Washington Center
Sat 07:04:10 AM 38.8594 -77.8150 226° Southwest 357 411 36,000  Level Washington Center
Sat 07:05:11 AM 38.7889 -77.9114 227° Southwest 372 428 36,000  Level Washington Center
Sat 07:06:09 AM 38.7203 -78.0025 226° Southwest 366 421 36,000  Level Washington Center
Sat 07:07:10 AM 38.6539 -78.0906 226° Southwest 356 410 36,000  Level Washington Center
Sat 07:08:11 AM 38.5872 -78.1839 228° Southwest 356 410 36,000  Level Washington Center
Sat 07:09:12 AM 38.5208 -78.2744 227° Southwest 356 410 36,000  Level Washington Center
Sat 07:10:12 AM 38.4561 -78.3650 228° Southwest 356 410 36,000  Level Washington Center
Sat 07:11:11 AM 38.3894 -78.4553 227° Southwest 356 410 36,000  Level Washington Center
Sat 07:12:11 AM 38.3203 -78.5478 226° Southwest 356 410 36,000  Level Washington Center
Sat 07:13:09 AM 38.2578 -78.6381 229° Southwest 356 410 36,000  Level Washington Center
Sat 07:14:10 AM 38.1908 -78.7278 227° Southwest 356 410 36,000  Level Washington Center
Sat 07:15:10 AM 38.1172 -78.8250 226° Southwest 356 410 36,000  Level Washington Center
Sat 07:16:10 AM 38.0458 -78.9219 227° Southwest 361 415 36,000  Level Washington Center
Sat 07:17:11 AM 37.9764 -79.0111 225° Southwest 361 415 36,000  Level Washington Center
Sat 07:18:12 AM 37.9092 -79.1003 226° Southwest 361 415 36,000  Level Washington Center
Sat 07:19:10 AM 37.8483 -79.1842 227° Southwest 361 415 36,000  Level Washington Center
Sat 07:20:11 AM 37.7831 -79.2756 228° Southwest 361 415 36,000  Level Washington Center
Sat 07:21:09 AM 37.7089 -79.3769 227° Southwest 361 415 36,000  Level Washington Center
Sat 07:22:10 AM 37.6392 -79.4681 226° Southwest 361 415 36,000  Level Washington Center
Sat 07:23:10 AM 37.5736 -79.5642 229° Southwest 361 415 36,000  Level Washington Center
Sat 07:24:12 AM 37.5081 -79.6525 227° Southwest 361 415 36,000  Level Washington Center
Sat 07:25:10 AM 37.4467 -79.7356 227° Southwest 361 415 36,000  Level Washington Center
Sat 07:26:10 AM 37.3786 -79.8336 229° Southwest 366 421 36,000  Level Washington Center
Sat 07:27:09 AM 37.3042 -79.9289 226° Southwest 361 415 36,000  Level Washington Center
Sat 07:28:12 AM 37.2383 -80.0189 227° Southwest 356 410 36,000  Level Washington Center
Sat 07:29:58 AM 37.1256 -80.1733 228° Southwest 357 411 36,000  Level Atlanta Center
Sat 07:30:58 AM 37.0575 -80.2625 226° Southwest 352 405 36,000  Level Atlanta Center
Sat 07:31:58 AM 36.9894 -80.3539 227° Southwest 358 412 36,000  Level Atlanta Center
Sat 07:32:58 AM 36.9211 -80.4428 226° Southwest 358 412 36,000 -500 Level Atlanta Center
Sat 07:33:58 AM 36.8467 -80.5422 227° Southwest 358 412 35,000 -600 Descending Atlanta Center
Sat 07:34:58 AM 36.7764 -80.6361 227° Southwest 358 412 34,800 -500 Descending Atlanta Center
Sat 07:35:58 AM 36.7203 -80.7136 228° Southwest 353 406 34,000 -400 Descending Atlanta Center
Sat 07:36:58 AM 36.6478 -80.8097 227° Southwest 358 412 34,000  Level Atlanta Center
Sat 07:37:58 AM 36.5731 -80.9058 226° Southwest 365 420 34,000  Level Atlanta Center
Sat 07:38:58 AM 36.5003 -81.0017 227° Southwest 382 440 34,000  Level Atlanta Center
Sat 07:39:58 AM 36.4297 -81.0944 227° Southwest 377 434 34,000 -950 Level Atlanta Center
Sat 07:40:58 AM 36.3569 -81.1925 227° Southwest 383 441 32,100 -1,950 Descending Atlanta Center
Sat 07:41:58 AM 36.2842 -81.2906 227° Southwest 383 441 30,100 -1,050 Descending Atlanta Center
Sat 07:42:58 AM 36.2050 -81.3908 226° Southwest 394 453 30,000 -50 Descending Atlanta Center
Sat 07:43:58 AM 36.1217 -81.4992 226° Southwest 394 453 30,000  Level Atlanta Center
Sat 07:44:58 AM 36.0467 -81.6017 228° Southwest 399 459 30,000  Level Atlanta Center
Sat 07:45:58 AM 35.9692 -81.7014 226° Southwest 405 466 30,000  Level Atlanta Center
Sat 07:46:58 AM 35.8939 -81.8008 227° Southwest 405 466 30,000  Level Atlanta Center
Sat 07:47:58 AM 35.8125 -81.9056 226° Southwest 405 466 30,000  Level Atlanta Center
Sat 07:48:58 AM 35.7347 -82.0050 226° Southwest 405 466 30,000  Level Atlanta Center
Sat 07:49:58 AM 35.6572 -82.1039 226° Southwest 410 472 30,000  Level Atlanta Center
Sat 07:50:58 AM 35.5753 -82.2056 225° Southwest 410 472 30,000 -550 Level Atlanta Center
Sat 07:51:58 AM 35.4953 -82.3042 225° Southwest 410 472 28,900 -1,450 Descending Atlanta Center
Sat 07:52:58 AM 35.4111 -82.4028 224° Southwest 417 480 27,100 -950 Descending Atlanta Center
Sat 07:53:58 AM 35.3225 -82.4961 221° Southwest 422 486 27,000 -50 Descending Atlanta Center
Sat 07:54:58 AM 35.2361 -82.5969 224° Southwest 428 493 27,000  Level Atlanta Center
Sat 07:55:58 AM 35.1558 -82.6822 221° Southwest 428 493 27,000 -100 Level Atlanta Center
Sat 07:56:58 AM 35.0692 -82.7750 221° Southwest 433 498 26,800 -700 Descending Atlanta Center
Sat 07:57:58 AM 34.9806 -82.8778 224° Southwest 438 504 25,600 -1,200 Descending Atlanta Center
Sat 07:58:58 AM 34.8894 -82.9675 219° Southwest 430 495 24,400 -800 Descending Atlanta Center
Sat 07:59:58 AM 34.7983 -83.0700 223° Southwest 414 476 24,000 -200 Descending Atlanta Center
Sat 08:00:58 AM 34.7158 -83.1644 223° Southwest 414 476 24,000  Level Atlanta Center
Sat 08:01:58 AM 34.6308 -83.2589 222° Southwest 421 484 24,000  Level Atlanta Center
Sat 08:02:58 AM 34.5394 -83.3528 220° Southwest 421 484 24,000 -400 Level Atlanta Center
Sat 08:03:58 AM 34.4544 -83.4442 222° Southwest 416 479 23,200 -1,900 Descending Atlanta Center
Sat 08:04:58 AM 34.3714 -83.5331 221° Southwest 411 473 20,200 -2,850 Descending Atlanta Center
Sat 08:05:58 AM 34.2903 -83.6189 221° Southwest 401 461 17,500 -2,600 Descending Atlanta Center
Sat 08:06:58 AM 34.2175 -83.6997 223° Southwest 380 437 15,000 -2,300 Descending Atlanta Center
Sat 08:07:58 AM 34.1550 -83.7703 223° Southwest 359 413 12,900 -1,500 Descending Atlanta Center
Sat 08:08:58 AM 34.0883 -83.8381 220° Southwest 328 377 12,000 -1,100 Descending Atlanta Center
Sat 08:09:58 AM 34.0342 -83.8983 223° Southwest 292 336 10,700 -1,773 Descending Atlanta Center
Sat 08:10:26 AM 34.0000 -83.9333 220° Southwest 271 312 9,400 -1,091 Descending Atlanta TRACON
Sat 08:11:26 AM 33.9333 -83.9500 192° South 289 333 9,100 -150 Descending Atlanta TRACON
Sat 08:12:26 AM 33.8500 -83.9333 171° South 289 333 9,100 -65 Level Atlanta TRACON
Sat 08:12:58 AM 33.8067 -83.9339 181° South 278 320 9,000 -457 Descending Atlanta Center
Sat 08:13:58 AM 33.7275 -83.9314 178° South 284 327 8,400 -1,000 Descending Atlanta Center
Sat 08:14:58 AM 33.6522 -83.9339 182° South 284 327 7,000 -650 Descending Atlanta Center
Sat 08:15:58 AM 33.6231 -83.9839 235° Southwest 222 255 7,100 -449 Climbing Atlanta Center
Sat 08:18:32 AM 33.6333 -84.1333 275° West 180 207 5,400 -701 Descending Atlanta TRACON
Sat 08:19:32 AM 33.6333 -84.2000 270° West 181 208 4,600 -900 Descending Atlanta TRACON
Sat 08:20:32 AM 33.6333 -84.2500 270° West 179 206 3,600 -942 Descending Atlanta TRACON
Sat 08:21:33 AM 33.6333 -84.3167 270° West 169 194 2,700 -885 Descending Atlanta TRACON

Login

Don't have an account? Register now (free) for customized features, flight alerts, and more!